createdAt,value
2019-05-21T00:00:40.178Z,101312.39
2019-05-21T00:03:11.494Z,101319.97
2019-05-21T00:05:42.129Z,101319.73
2019-05-21T00:08:13.281Z,101313.48
2019-05-21T00:10:43.931Z,101314.02
2019-05-21T00:13:15.965Z,101306.61
2019-05-21T00:15:46.304Z,101314.90
2019-05-21T00:18:16.848Z,101310.40
2019-05-21T00:20:47.186Z,101309.47
2019-05-21T00:23:18.039Z,101306.17
2019-05-21T00:25:48.398Z,101312.00
2019-05-21T00:28:34.131Z,101307.05
2019-05-21T00:31:40.870Z,101306.16
2019-05-21T00:34:48.460Z,101309.86
2019-05-21T00:37:55.542Z,101311.12
2019-05-21T00:41:02.362Z,101312.66
2019-05-21T00:43:45.439Z,101311.23
2019-05-21T00:46:15.747Z,101309.86
2019-05-21T00:48:47.091Z,101315.91
2019-05-21T00:51:17.392Z,101315.97
2019-05-21T00:53:47.757Z,101321.20
2019-05-21T00:56:18.908Z,101312.10
2019-05-21T00:58:49.434Z,101316.57
2019-05-21T01:01:19.993Z,101321.23
2019-05-21T01:03:52.606Z,101323.56
2019-05-21T01:06:23.681Z,101321.89
2019-05-21T01:08:54.807Z,101320.33
2019-05-21T01:11:25.135Z,101326.31
2019-05-21T01:13:56.997Z,101324.11
2019-05-21T01:16:27.422Z,101322.40
2019-05-21T01:18:57.783Z,101326.34
2019-05-21T01:21:28.368Z,101325.48
2019-05-21T01:23:58.711Z,101322.36
2019-05-21T01:26:29.331Z,101321.66
2019-05-21T01:29:00.518Z,101320.08
2019-05-21T01:31:32.011Z,101330.97
2019-05-21T01:34:02.357Z,101323.84
2019-05-21T01:36:34.204Z,101324.55
2019-05-21T01:39:05.917Z,101322.00
2019-05-21T01:41:36.239Z,101324.08
2019-05-21T01:44:07.725Z,101323.65
2019-05-21T01:46:38.051Z,101323.77
2019-05-21T01:49:08.338Z,101328.27
2019-05-21T01:51:39.207Z,101328.50
2019-05-21T01:54:10.653Z,101327.58
2019-05-21T01:56:41.185Z,101331.92
2019-05-21T01:59:11.712Z,101322.02
2019-05-21T02:01:42.033Z,101325.61
2019-05-21T02:04:13.595Z,101323.72
2019-05-21T02:06:44.681Z,101325.80
2019-05-21T02:09:15.434Z,101319.90
2019-05-21T02:11:45.782Z,101326.78
2019-05-21T02:14:17.329Z,101320.34
2019-05-21T02:16:47.652Z,101324.14
2019-05-21T02:19:18.324Z,101330.74
2019-05-21T02:21:49.528Z,101327.02
2019-05-21T02:24:19.949Z,101333.06
2019-05-21T02:26:51.301Z,101336.67
2019-05-21T02:29:21.625Z,101340.65
2019-05-21T02:31:53.483Z,101334.15
2019-05-21T02:34:23.881Z,101337.23
2019-05-21T02:36:54.329Z,101342.02
2019-05-21T02:39:24.868Z,101345.56
2019-05-21T02:41:56.298Z,101344.36
2019-05-21T02:44:26.974Z,101347.48
2019-05-21T02:46:57.293Z,101343.94
2019-05-21T02:49:27.659Z,101351.77
2019-05-21T02:51:58.318Z,101350.52
2019-05-21T02:54:40.245Z,101351.45
2019-05-21T02:57:00.708Z,101351.83
2019-05-21T02:59:31.430Z,101353.61
2019-05-21T03:02:15.394Z,101346.34
2019-05-21T03:04:47.218Z,101348.30
2019-05-21T03:07:25.237Z,101348.81
2019-05-21T03:09:53.788Z,101351.08
2019-05-21T03:12:24.086Z,101353.94
2019-05-21T03:14:56.336Z,101355.55
2019-05-21T03:17:27.872Z,101354.56
2019-05-21T03:19:58.688Z,101357.55
2019-05-21T03:22:29.229Z,101361.17
2019-05-21T03:25:02.330Z,101360.99
2019-05-21T03:27:32.679Z,101360.84
2019-05-21T03:30:03.061Z,101372.94
2019-05-21T03:32:33.804Z,101368.50
2019-05-21T03:35:09.905Z,101372.02
2019-05-21T03:37:43.111Z,101367.69
2019-05-21T03:40:14.174Z,101363.48
2019-05-21T03:42:44.504Z,101362.34
2019-05-21T03:45:16.895Z,101363.16
2019-05-21T03:47:49.868Z,101361.05
2019-05-21T03:50:20.180Z,101373.02
2019-05-21T03:52:51.546Z,101374.74
2019-05-21T03:55:23.587Z,101378.34
2019-05-21T03:57:55.128Z,101375.78
2019-05-21T04:00:26.315Z,101373.56
2019-05-21T04:02:58.618Z,101374.09
2019-05-21T04:05:29.503Z,101376.25
2019-05-21T04:07:59.787Z,101371.34
2019-05-21T04:10:47.685Z,101375.50
2019-05-21T04:13:18.493Z,101371.07
2019-05-21T04:16:00.585Z,101377.02
2019-05-21T04:18:34.075Z,101379.97
2019-05-21T04:21:04.502Z,101378.59
2019-05-21T04:23:35.455Z,101379.70
2019-05-21T04:26:08.036Z,101385.41
2019-05-21T04:28:38.849Z,101387.97
2019-05-21T04:31:09.174Z,101387.94
2019-05-21T04:33:40.586Z,101387.06
2019-05-21T04:36:11.467Z,101392.31
2019-05-21T04:38:42.421Z,101389.28
2019-05-21T04:41:12.760Z,101388.88
2019-05-21T04:43:43.075Z,101394.41
2019-05-21T04:46:14.721Z,101389.52
2019-05-21T04:48:45.387Z,101391.25
2019-05-21T04:51:15.744Z,101392.67
2019-05-21T04:53:46.438Z,101399.66
2019-05-21T04:56:16.786Z,101403.79
2019-05-21T04:58:47.294Z,101406.51
2019-05-21T05:01:18.574Z,101410.47
2019-05-21T05:03:50.945Z,101414.02
2019-05-21T05:06:22.096Z,101415.36
2019-05-21T05:08:52.454Z,101416.50
2019-05-21T05:11:22.728Z,101425.91
2019-05-21T05:13:53.154Z,101434.95
2019-05-21T05:16:24.093Z,101428.95
2019-05-21T05:18:54.615Z,101427.63
2019-05-21T05:21:24.944Z,101432.36
2019-05-21T05:23:55.306Z,101431.67
2019-05-21T05:26:25.702Z,101433.70
2019-05-21T05:28:56.733Z,101443.75
2019-05-21T05:31:27.162Z,101441.11
2019-05-21T05:33:57.785Z,101444.72
2019-05-21T05:36:28.086Z,101448.73
2019-05-21T05:38:59.769Z,101446.30
2019-05-21T05:41:30.080Z,101453.55
2019-05-21T05:44:00.507Z,101443.92
2019-05-21T05:46:32.362Z,101452.33
2019-05-21T05:49:10.094Z,101449.38
2019-05-21T05:51:41.239Z,101450.37
2019-05-21T05:54:11.572Z,101447.91
2019-05-21T05:56:42.765Z,101454.24
2019-05-21T05:59:14.745Z,101455.02
2019-05-21T06:01:45.295Z,101456.44
2019-05-21T06:04:15.680Z,101453.38
2019-05-21T06:06:46.824Z,101457.39
2019-05-21T06:09:17.183Z,101460.70
2019-05-21T06:11:49.007Z,101460.84
2019-05-21T06:14:19.454Z,101465.82
2019-05-21T06:16:50.468Z,101473.19
2019-05-21T06:19:20.989Z,101469.27
2019-05-21T06:21:53.215Z,101476.42
2019-05-21T06:24:23.606Z,101473.95
2019-05-21T06:26:54.229Z,101478.38
2019-05-21T06:29:24.560Z,101482.44
2019-05-21T06:31:55.262Z,101477.42
2019-05-21T06:34:25.799Z,101484.94
2019-05-21T06:36:57.261Z,101484.05
2019-05-21T06:39:27.523Z,101482.21
2019-05-21T06:41:59.229Z,101484.87
2019-05-21T06:44:29.779Z,101487.91
2019-05-21T06:47:01.947Z,101484.52
2019-05-21T06:49:32.343Z,101485.93
2019-05-21T06:52:03.477Z,101484.46
2019-05-21T06:54:33.813Z,101489.32
2019-05-21T06:57:06.541Z,101490.69
2019-05-21T06:59:37.360Z,101484.84
2019-05-21T07:02:08.201Z,101487.84
2019-05-21T07:04:38.524Z,101482.07
2019-05-21T07:07:10.101Z,101483.80
2019-05-21T07:09:40.593Z,101482.82
2019-05-21T07:12:11.984Z,101474.63
2019-05-21T07:14:42.310Z,101473.58
2019-05-21T07:17:12.934Z,101481.08
2019-05-21T07:19:43.292Z,101482.47
2019-05-21T07:22:13.778Z,101481.08
2019-05-21T07:24:44.492Z,101488.91
2019-05-21T07:27:15.541Z,101481.75
2019-05-21T07:29:45.979Z,101488.77
2019-05-21T07:32:16.940Z,101488.02
2019-05-21T07:34:48.332Z,101488.78
2019-05-21T07:37:18.863Z,101490.90
2019-05-21T07:39:49.569Z,101492.36
2019-05-21T07:42:20.590Z,101497.30
2019-05-21T07:44:50.978Z,101491.53
2019-05-21T07:47:21.673Z,101496.40
2019-05-21T07:49:51.941Z,101495.40
2019-05-21T07:52:26.083Z,101499.08
2019-05-21T07:54:56.412Z,101498.89
2019-05-21T07:57:26.778Z,101497.20
2019-05-21T07:59:58.282Z,101499.55
2019-05-21T08:02:29.593Z,101500.41
2019-05-21T08:05:00.466Z,101501.87
2019-05-21T08:07:31.708Z,101504.50
2019-05-21T08:10:02.642Z,101507.23
2019-05-21T08:12:38.816Z,101511.39
2019-05-21T08:15:11.105Z,101516.66
2019-05-21T08:17:42.602Z,101510.78
2019-05-21T08:20:14.865Z,101515.23
2019-05-21T08:22:46.478Z,101515.08
2019-05-21T08:25:18.609Z,101515.95
2019-05-21T08:27:48.990Z,101514.15
2019-05-21T08:30:19.693Z,101521.25
2019-05-21T08:32:50.551Z,101519.90
2019-05-21T08:35:20.843Z,101519.59
2019-05-21T08:37:51.139Z,101516.66
2019-05-21T08:40:26.030Z,101516.81
2019-05-21T08:42:57.425Z,101517.05
2019-05-21T08:45:28.212Z,101516.46
2019-05-21T08:48:00.620Z,101519.87
2019-05-21T08:50:31.612Z,101523.48
2019-05-21T08:53:01.983Z,101521.70
2019-05-21T08:55:32.804Z,101516.58
2019-05-21T08:58:07.385Z,101514.48
2019-05-21T09:00:35.973Z,101521.94
2019-05-21T09:03:07.837Z,101520.27
2019-05-21T09:05:38.282Z,101514.00
2019-05-21T09:08:09.183Z,101507.27
2019-05-21T09:10:42.125Z,101504.03
2019-05-21T09:13:13.453Z,101513.55
2019-05-21T09:15:44.064Z,101512.95
2019-05-21T09:18:16.577Z,101511.53
2019-05-21T09:20:47.004Z,101512.59
2019-05-21T09:23:17.323Z,101513.39
2019-05-21T09:25:49.641Z,101513.88
2019-05-21T09:28:20.422Z,101517.75
2019-05-21T09:30:50.860Z,101515.34
2019-05-21T09:33:21.214Z,101514.11
2019-05-21T09:35:51.560Z,101510.87
2019-05-21T09:38:22.233Z,101511.85
2019-05-21T09:40:52.772Z,101520.22
2019-05-21T09:43:23.546Z,101515.37
2019-05-21T09:45:54.250Z,101508.98
2019-05-21T09:48:24.825Z,101511.31
2019-05-21T09:50:55.162Z,101504.81
2019-05-21T09:53:25.800Z,101505.63
2019-05-21T09:55:56.598Z,101505.05
2019-05-21T09:58:28.595Z,101513.56
2019-05-21T10:01:09.787Z,101509.06
2019-05-21T10:03:48.800Z,101516.05
2019-05-21T10:06:19.947Z,101511.45
2019-05-21T10:08:51.698Z,101505.67
2019-05-21T10:11:22.443Z,101511.31
2019-05-21T10:13:52.969Z,101507.70
2019-05-21T10:16:23.564Z,101509.53
2019-05-21T10:18:55.449Z,101499.67
2019-05-21T10:21:26.035Z,101504.81
2019-05-21T10:23:59.602Z,101502.64
2019-05-21T10:26:30.020Z,101501.33
2019-05-21T10:29:03.290Z,101509.61
2019-05-21T10:31:33.716Z,101510.34
2019-05-21T10:34:05.790Z,101511.59
2019-05-21T10:36:37.025Z,101507.27
2019-05-21T10:39:08.669Z,101510.82
2019-05-21T10:41:39.676Z,101518.30
2019-05-21T10:44:10.354Z,101516.62
2019-05-21T10:46:40.613Z,101515.40
2019-05-21T10:49:11.490Z,101523.28
2019-05-21T10:51:41.858Z,101522.80
2019-05-21T10:54:12.636Z,101516.25
2019-05-21T10:56:47.871Z,101521.83
2019-05-21T10:59:15.034Z,101513.98
2019-05-21T11:02:03.407Z,101511.98
2019-05-21T11:04:57.683Z,101509.97
2019-05-21T11:07:28.594Z,101505.28
2019-05-21T11:10:03.817Z,101507.41
2019-05-21T11:12:34.260Z,101509.01
2019-05-21T11:15:08.295Z,101501.86
2019-05-21T11:17:49.966Z,101509.48
2019-05-21T11:20:14.803Z,101511.27
2019-05-21T11:22:45.131Z,101511.61
2019-05-21T11:25:19.000Z,101507.25
2019-05-21T11:27:49.427Z,101510.34
2019-05-21T11:30:22.644Z,101508.20
2019-05-21T11:32:53.737Z,101510.36
2019-05-21T11:35:24.618Z,101508.89
2019-05-21T11:37:55.016Z,101507.63
2019-05-21T11:40:26.402Z,101502.95
2019-05-21T11:42:57.051Z,101506.69
2019-05-21T11:45:32.095Z,101500.06
2019-05-21T11:48:00.195Z,101499.41
2019-05-21T11:50:31.240Z,101501.61
2019-05-21T11:53:01.526Z,101504.78
2019-05-21T11:55:33.961Z,101508.28
2019-05-21T12:04:12.293Z,101504.53
2019-05-21T12:07:03.718Z,101503.91
2019-05-21T12:09:34.429Z,101507.00
2019-05-21T12:12:06.989Z,101508.05
2019-05-21T12:14:37.402Z,101506.09
2019-05-21T12:17:07.959Z,101506.38
2019-05-21T12:19:38.284Z,101504.47
2019-05-21T12:22:09.064Z,101499.02
2019-05-21T12:24:39.381Z,101500.39
2019-05-21T12:27:11.559Z,101499.91
2019-05-21T12:29:41.925Z,101497.43
2019-05-21T12:32:14.510Z,101494.81
2019-05-21T12:34:44.928Z,101495.28
2019-05-21T12:37:15.417Z,101497.13
2019-05-21T12:39:46.248Z,101504.55
2019-05-21T12:42:17.452Z,101507.08
2019-05-21T12:44:47.806Z,101501.59
2019-05-21T12:47:20.384Z,101508.11
2019-05-21T12:49:51.125Z,101508.39
2019-05-21T12:52:22.208Z,101499.16
2019-05-21T12:54:52.728Z,101509.00
2019-05-21T12:57:23.083Z,101507.47
2019-05-21T12:59:53.910Z,101510.39
2019-05-21T13:02:26.049Z,101505.85
2019-05-21T13:04:56.370Z,101509.89
2019-05-21T13:07:27.167Z,101507.05
2019-05-21T13:09:59.346Z,101495.88
2019-05-21T13:12:30.184Z,101495.03
2019-05-21T13:15:01.141Z,101506.13
2019-05-21T13:17:31.953Z,101498.08
2019-05-21T13:20:04.210Z,101501.10
2019-05-21T13:22:36.698Z,101496.75
2019-05-21T13:25:08.690Z,101494.89
2019-05-21T13:27:39.489Z,101495.22
2019-05-21T13:30:14.658Z,101500.61
2019-05-21T13:32:45.183Z,101492.97
2019-05-21T13:35:17.274Z,101498.30
2019-05-21T13:37:47.678Z,101489.37
2019-05-21T13:40:19.527Z,101494.81
2019-05-21T13:42:50.903Z,101502.34
2019-05-21T13:45:22.233Z,101490.59
2019-05-21T13:47:52.628Z,101491.00
2019-05-21T13:50:23.956Z,101494.48
2019-05-21T13:52:55.231Z,101486.47
2019-05-21T13:55:25.870Z,101487.89
2019-05-21T13:57:56.265Z,101487.55
2019-05-21T14:00:28.665Z,101486.27
2019-05-21T14:02:59.084Z,101484.98
2019-05-21T14:05:29.713Z,101489.57
2019-05-21T14:08:00.611Z,101491.02
2019-05-21T14:10:32.414Z,101481.85
2019-05-21T14:13:03.256Z,101490.02
2019-05-21T14:15:34.287Z,101491.72
2019-05-21T14:18:05.141Z,101500.39
2019-05-21T14:20:35.546Z,101492.72
2019-05-21T14:23:07.407Z,101492.55
2019-05-21T14:25:38.906Z,101490.67
2019-05-21T14:28:09.227Z,101495.38
2019-05-21T14:30:40.323Z,101491.03
2019-05-21T14:33:10.653Z,101491.50
2019-05-21T14:35:41.647Z,101481.23
2019-05-21T14:38:12.010Z,101488.20
2019-05-21T14:40:43.684Z,101489.02
2019-05-21T14:43:14.505Z,101489.08
2019-05-21T14:45:44.857Z,101484.16
2019-05-21T14:48:15.239Z,101483.98
2019-05-21T14:50:45.751Z,101490.67
2019-05-21T14:53:16.506Z,101489.70
2019-05-21T14:55:47.304Z,101488.06
2019-05-21T14:58:17.619Z,101486.26
2019-05-21T15:00:49.578Z,101492.59
2019-05-21T15:03:25.369Z,101483.45
2019-05-21T15:05:52.602Z,101490.48
2019-05-21T15:08:22.988Z,101487.73
2019-05-21T15:10:54.454Z,101483.30
2019-05-21T15:13:25.604Z,101490.77
2019-05-21T15:15:58.170Z,101489.70
2019-05-21T15:18:28.691Z,101491.17
2019-05-21T15:21:00.582Z,101496.59
2019-05-21T15:23:33.078Z,101486.59
2019-05-21T15:26:04.445Z,101489.39
2019-05-21T15:28:35.248Z,101490.20
2019-05-21T15:31:06.662Z,101495.16
2019-05-21T15:33:37.385Z,101494.40
2019-05-21T15:36:10.460Z,101487.34
2019-05-21T15:38:50.206Z,101490.41
2019-05-21T15:41:14.703Z,101485.95
2019-05-21T15:43:45.176Z,101481.95
2019-05-21T15:46:15.965Z,101487.39
2019-05-21T15:48:46.843Z,101490.25
2019-05-21T15:51:17.151Z,101490.05
2019-05-21T15:53:48.306Z,101482.42
2019-05-21T15:56:18.625Z,101475.09
2019-05-21T15:58:48.975Z,101472.80
2019-05-21T16:01:20.811Z,101476.31
2019-05-21T16:03:52.436Z,101472.12
2019-05-21T16:06:22.980Z,101473.77
2019-05-21T16:08:54.869Z,101476.20
2019-05-21T16:11:28.386Z,101475.77
2019-05-21T16:13:58.180Z,101475.40
2019-05-21T16:16:29.110Z,101465.22
2019-05-21T16:18:59.588Z,101465.14
2019-05-21T16:21:29.986Z,101457.25
2019-05-21T16:24:00.376Z,101459.41
2019-05-21T16:26:30.700Z,101452.16
2019-05-21T16:29:01.129Z,101452.52
2019-05-21T16:31:31.567Z,101454.22
2019-05-21T16:34:02.993Z,101448.03
2019-05-21T16:36:34.136Z,101454.45
2019-05-21T16:39:06.914Z,101452.39
2019-05-21T16:41:44.802Z,101452.84
2019-05-21T16:44:09.782Z,101457.89
2019-05-21T16:46:42.700Z,101463.98
2019-05-21T16:49:12.690Z,101453.05
2019-05-21T16:51:43.630Z,101464.27
2019-05-21T16:54:15.812Z,101464.83
2019-05-21T16:56:46.751Z,101460.55
2019-05-21T16:59:17.018Z,101462.69
2019-05-21T17:01:48.882Z,101466.36
2019-05-21T17:04:19.232Z,101460.76
2019-05-21T17:06:49.575Z,101463.83
2019-05-21T17:09:22.152Z,101467.53
2019-05-21T17:12:00.148Z,101468.78
2019-05-21T17:14:25.152Z,101469.19
2019-05-21T17:16:55.517Z,101460.06
2019-05-21T17:19:25.899Z,101467.53
2019-05-21T17:21:56.212Z,101470.64
2019-05-21T17:24:27.172Z,101473.39
2019-05-21T17:26:58.304Z,101474.08
2019-05-21T17:29:28.862Z,101470.22
2019-05-21T17:31:59.547Z,101476.94
2019-05-21T17:34:29.862Z,101475.13
2019-05-21T17:37:00.640Z,101476.45
2019-05-21T17:39:31.633Z,101475.81
2019-05-21T17:42:14.671Z,101479.34
2019-05-21T17:44:34.861Z,101487.37
2019-05-21T17:47:07.159Z,101483.49
2019-05-21T17:49:39.398Z,101486.43
2019-05-21T17:52:09.986Z,101485.73
2019-05-21T17:54:56.289Z,101487.41
2019-05-21T17:57:15.857Z,101495.85
2019-05-21T17:59:47.653Z,101503.16
2019-05-21T18:02:20.423Z,101500.91
2019-05-21T18:04:51.850Z,101502.14
2019-05-21T18:07:23.536Z,101499.31
2019-05-21T18:09:54.172Z,101503.28
2019-05-21T18:12:31.981Z,101495.91
2019-05-21T18:14:58.699Z,101510.19
2019-05-21T18:17:30.366Z,101514.54
2019-05-21T18:20:02.458Z,101514.54
2019-05-21T18:22:34.863Z,101518.73
2019-05-21T18:25:08.818Z,101516.69
2019-05-21T18:27:39.161Z,101521.95
2019-05-21T18:30:11.635Z,101520.55
2019-05-21T18:32:42.748Z,101518.95
2019-05-21T18:35:14.267Z,101524.61
2019-05-21T18:37:44.981Z,101521.69
2019-05-21T18:40:15.560Z,101522.91
2019-05-21T18:42:46.234Z,101525.66
2019-05-21T18:45:18.180Z,101523.50
2019-05-21T18:47:48.490Z,101525.33
2019-05-21T18:50:33.379Z,101526.34
2019-05-21T18:52:52.285Z,101532.73
2019-05-21T18:55:24.205Z,101536.62
2019-05-21T18:57:54.523Z,101537.30
2019-05-21T19:00:26.010Z,101546.58
2019-05-21T19:02:56.442Z,101550.09
2019-05-21T19:05:29.223Z,101548.86
2019-05-21T19:07:59.915Z,101549.19
2019-05-21T19:10:30.829Z,101549.89
2019-05-21T19:13:01.785Z,101556.50
2019-05-21T19:15:34.974Z,101562.08
2019-05-21T19:18:05.657Z,101557.20
2019-05-21T19:20:36.595Z,101558.09
2019-05-21T19:23:06.916Z,101567.36
2019-05-21T19:25:39.723Z,101558.09
2019-05-21T19:28:09.961Z,101571.14
2019-05-21T19:30:41.157Z,101569.39
2019-05-21T19:33:12.808Z,101568.99
2019-05-21T19:35:43.538Z,101578.16
2019-05-21T19:38:14.281Z,101581.71
2019-05-21T19:40:47.913Z,101576.98
2019-05-21T19:43:18.970Z,101579.72
2019-05-21T19:45:49.640Z,101584.23
2019-05-21T19:48:20.014Z,101585.56
2019-05-21T19:50:50.626Z,101591.83
2019-05-21T19:53:21.142Z,101593.13
2019-05-21T19:55:55.131Z,101593.56
2019-05-21T19:58:26.648Z,101593.16
2019-05-21T20:00:58.481Z,101598.45
2019-05-21T20:03:29.396Z,101606.37
2019-05-21T20:06:01.571Z,101604.27
2019-05-21T20:08:32.325Z,101606.46
2019-05-21T20:11:03.755Z,101612.20
2019-05-21T20:13:34.296Z,101608.70
2019-05-21T20:16:06.928Z,101608.72
2019-05-21T20:18:37.275Z,101611.35
2019-05-21T20:21:09.631Z,101613.59
2019-05-21T20:23:40.045Z,101621.92
2019-05-21T20:26:18.583Z,101611.37
2019-05-21T20:28:48.898Z,101618.39
2019-05-21T20:31:20.249Z,101624.11
2019-05-21T20:33:53.040Z,101620.16
2019-05-21T20:36:24.414Z,101619.28
2019-05-21T20:38:55.476Z,101627.19
2019-05-21T20:41:26.037Z,101620.61
2019-05-21T20:43:58.914Z,101621.02
2019-05-21T20:46:29.028Z,101621.90
2019-05-21T20:49:00.984Z,101625.41
2019-05-21T20:51:33.342Z,101624.09
2019-05-21T20:54:04.606Z,101625.44
2019-05-21T20:56:36.829Z,101617.45
2019-05-21T20:59:07.604Z,101623.14
2019-05-21T21:01:38.351Z,101622.71
2019-05-21T21:04:09.376Z,101627.09
2019-05-21T21:06:44.236Z,101635.81
2019-05-21T21:09:15.630Z,101640.13
2019-05-21T21:11:46.670Z,101644.52
2019-05-21T21:14:19.633Z,101639.77
2019-05-21T21:16:51.912Z,101642.84
2019-05-21T21:19:22.778Z,101640.25
2019-05-21T21:21:55.876Z,101640.61
2019-05-21T21:24:26.700Z,101641.88
2019-05-21T21:26:58.717Z,101645.36
2019-05-21T21:29:29.091Z,101648.08
2019-05-21T21:32:00.615Z,101647.19
2019-05-21T21:34:31.133Z,101651.58
2019-05-21T21:37:02.812Z,101652.41
2019-05-21T21:39:33.561Z,101656.00
2019-05-21T21:42:06.638Z,101651.57
2019-05-21T21:44:37.835Z,101651.50
2019-05-21T21:47:11.176Z,101656.73
2019-05-21T21:49:41.532Z,101659.16
2019-05-21T21:52:13.650Z,101654.73
2019-05-21T21:54:44.621Z,101661.21
2019-05-21T21:57:15.953Z,101658.53
2019-05-21T21:59:46.684Z,101657.22
2019-05-21T22:02:27.766Z,101657.19
2019-05-21T22:05:00.226Z,101657.19
2019-05-21T22:07:33.182Z,101664.73
2019-05-21T22:10:08.517Z,101664.66
2019-05-21T22:12:39.267Z,101659.89
2019-05-21T22:15:11.862Z,101657.19
2019-05-21T22:17:43.165Z,101660.44
2019-05-21T22:20:15.168Z,101662.17
2019-05-21T22:22:46.449Z,101662.90
2019-05-21T22:25:16.775Z,101661.52
2019-05-21T22:27:47.786Z,101657.90
2019-05-21T22:30:19.910Z,101662.69
2019-05-21T22:32:51.525Z,101666.66
2019-05-21T22:35:21.797Z,101664.90
2019-05-21T22:37:52.969Z,101665.34
2019-05-21T22:40:23.421Z,101667.95
2019-05-21T22:42:53.915Z,101671.79
2019-05-21T22:45:24.851Z,101670.89
2019-05-21T22:47:57.502Z,101669.69
2019-05-21T22:50:28.061Z,101669.59
2019-05-21T22:52:58.403Z,101673.19
2019-05-21T22:55:29.172Z,101676.11
2019-05-21T22:58:00.308Z,101675.23
2019-05-21T23:00:32.958Z,101675.19
2019-05-21T23:03:04.179Z,101670.77
2019-05-21T23:05:34.535Z,101679.50
2019-05-21T23:08:05.534Z,101677.19
2019-05-21T23:10:36.642Z,101681.11
2019-05-21T23:13:07.307Z,101676.73
2019-05-21T23:15:39.240Z,101680.19
2019-05-21T23:18:13.077Z,101674.91
2019-05-21T23:21:04.304Z,101677.84
2019-05-21T23:23:36.072Z,101678.75
2019-05-21T23:26:08.908Z,101676.49
2019-05-21T23:28:41.734Z,101682.09
2019-05-21T23:31:15.544Z,101685.59
2019-05-21T23:33:45.863Z,101684.69
2019-05-21T23:36:18.001Z,101688.63
2019-05-21T23:38:49.922Z,101692.56
2019-05-21T23:41:22.025Z,101691.31
2019-05-21T23:43:53.063Z,101697.91
2019-05-21T23:46:23.923Z,101693.59
2019-05-21T23:48:54.294Z,101691.87
2019-05-21T23:51:25.639Z,101690.19
2019-05-21T23:53:56.807Z,101689.34
2019-05-21T23:56:27.149Z,101687.61
2019-05-21T23:58:57.884Z,101685.86
